Time;durP1;ratioP1;P1;durP2;ratioP2;P2;SDS_P1;SDS_P2;PMS_P1;PMS_P2;Temp;Humidity;BMP_temperature;BMP_pressure;BME280_temperature;BME280_humidity;BME280_pressure;Samples;Min_cycle;Max_cycle;Signal;HPM_P1;HPM_P2
2021/06/02 00:02:03;;;;;;;4.57;1.40;;;12.20;83.50;;;;;;4938141;29;20087;-71
2021/06/02 00:04:34;;;;;;;5.35;1.45;;;12.20;84.60;;;;;;4937806;29;20040;-70
2021/06/02 00:07:09;;;;;;;4.07;1.40;;;12.10;86.30;;;;;;4937540;29;20052;-70
2021/06/02 00:09:35;;;;;;;3.00;1.23;;;12.10;86.80;;;;;;4937872;29;20071;-70
2021/06/02 00:12:11;;;;;;;8.70;1.88;;;12.00;88.20;;;;;;4937680;29;20079;-70
2021/06/02 00:14:37;;;;;;;7.07;1.42;;;12.00;89.60;;;;;;4937683;29;20023;-70
2021/06/02 00:17:04;;;;;;;3.42;1.45;;;12.00;90.00;;;;;;4937656;29;20480;-70
2021/06/02 00:19:30;;;;;;;5.68;1.35;;;12.00;90.40;;;;;;4937951;29;20031;-70
2021/06/02 00:21:58;;;;;;;2.00;1.30;;;11.90;91.40;;;;;;4937451;29;20024;-70
2021/06/02 00:24:25;;;;;;;3.20;1.50;;;11.80;91.80;;;;;;4937443;29;20043;-70
2021/06/02 00:26:53;;;;;;;3.13;1.15;;;11.90;91.90;;;;;;4937326;29;20083;-70
2021/06/02 00:29:20;;;;;;;2.65;1.60;;;11.80;93.10;;;;;;4920211;29;20115;-70
2021/06/02 00:31:48;;;;;;;4.28;1.58;;;11.80;93.70;;;;;;4937511;29;20114;-70
2021/06/02 00:34:14;;;;;;;2.92;1.48;;;11.80;93.70;;;;;;4937216;29;20020;-70
2021/06/02 00:36:42;;;;;;;1.92;1.40;;;11.80;93.60;;;;;;4946347;29;20474;-70
2021/06/02 00:39:09;;;;;;;2.63;1.50;;;11.80;93.60;;;;;;4956524;28;20037;-70
2021/06/02 00:41:37;;;;;;;7.28;1.70;;;11.70;94.60;;;;;;4956493;28;20031;-70
2021/06/02 00:44:16;;;;;;;2.53;1.33;;;11.60;95.20;;;;;;4956277;28;20071;-70
2021/06/02 00:46:44;;;;;;;2.83;1.43;;;11.60;94.90;;;;;;4956188;28;20494;-70
2021/06/02 00:49:24;;;;;;;2.20;1.40;;;11.60;94.40;;;;;;4956304;28;20023;-70
2021/06/02 00:51:57;;;;;;;2.15;1.23;;;11.60;95.30;;;;;;4956129;28;20027;-70
2021/06/02 00:54:24;;;;;;;1.88;1.30;;;11.50;96.20;;;;;;4956224;28;20394;-70
2021/06/02 00:57:17;;;;;;;3.70;1.60;;;11.50;96.00;;;;;;4955539;28;20386;-70
2021/06/02 00:59:45;;;;;;;2.00;1.23;;;11.50;96.60;;;;;;4953793;29;20043;-70
2021/06/02 01:02:17;;;;;;;3.08;1.40;;;11.50;96.00;;;;;;4955840;28;20059;-70
2021/06/02 01:04:44;;;;;;;2.38;1.40;;;11.40;96.50;;;;;;4956273;28;20051;-70
2021/06/02 01:07:13;;;;;;;3.40;1.58;;;11.40;96.40;;;;;;4955597;28;20031;-70
2021/06/02 01:09:59;;;;;;;3.40;1.30;;;11.30;97.80;;;;;;4955950;28;20024;-70
2021/06/02 01:12:29;;;;;;;4.95;1.52;;;11.30;98.70;;;;;;4955945;28;20024;-70
2021/06/02 01:14:57;;;;;;;1.73;1.30;;;11.30;97.70;;;;;;4956300;28;20027;-70
2021/06/02 01:17:28;;;;;;;2.92;1.67;;;11.30;97.70;;;;;;4955722;28;20036;-70
2021/06/02 01:19:55;;;;;;;5.05;1.48;;;11.30;98.20;;;;;;4955919;28;20359;-70
2021/06/02 01:22:21;;;;;;;6.47;1.58;;;11.30;98.70;;;;;;4955452;28;20062;-70
2021/06/02 01:24:48;;;;;;;4.15;1.60;;;11.20;98.80;;;;;;4955455;29;20043;-70
2021/06/02 01:27:14;;;;;;;2.67;1.33;;;11.20;98.60;;;;;;4955483;29;20031;-70
2021/06/02 01:29:49;;;;;;;1.45;1.17;;;11.20;98.80;;;;;;4955557;28;20382;-70
2021/06/02 01:32:45;;;;;;;4.22;1.05;;;11.10;99.50;;;;;;4955257;28;20537;-70
2021/06/02 01:35:41;;;;;;;4.60;1.65;;;11.10;99.70;;;;;;4955464;28;20023;-70
2021/06/02 01:38:38;;;;;;;3.25;1.60;;;11.10;99.90;;;;;;4955360;29;20046;-70
2021/06/02 01:41:26;;;;;;;2.90;1.35;;;11.00;99.90;;;;;;4955410;28;20085;-70
2021/06/02 01:44:19;;;;;;;6.57;1.60;;;10.90;99.90;;;;;;4955110;29;20039;-70
2021/06/02 01:47:02;;;;;;;4.10;1.38;;;11.00;99.90;;;;;;4954993;29;20490;-70
2021/06/02 01:50:05;;;;;;;2.33;1.30;;;10.90;99.90;;;;;;4955074;28;20027;-70
2021/06/02 01:53:08;;;;;;;3.65;1.55;;;10.90;99.90;;;;;;4955313;29;20027;-70
2021/06/02 01:56:02;;;;;;;3.00;1.40;;;10.80;99.90;;;;;;4955077;29;20114;-70
2021/06/02 01:58:40;;;;;;;2.15;1.30;;;10.80;99.90;;;;;;4954767;28;20031;-70
2021/06/02 02:01:45;;;;;;;4.55;1.50;;;10.90;99.90;;;;;;4954683;29;20031;-70
2021/06/02 02:04:47;;;;;;;3.95;1.50;;;10.80;99.90;;;;;;4954761;29;20038;-70
2021/06/02 02:07:21;;;;;;;7.50;1.88;;;10.80;99.90;;;;;;4954718;29;20023;-70
2021/06/02 02:10:10;;;;;;;3.83;1.35;;;10.90;99.90;;;;;;4954361;28;20062;-70
2021/06/02 02:12:36;;;;;;;1.45;1.10;;;10.90;99.90;;;;;;4954605;29;20023;-70
2021/06/02 02:15:23;;;;;;;3.45;1.40;;;10.80;99.90;;;;;;4954571;29;20081;-70
2021/06/02 02:18:19;;;;;;;8.27;1.83;;;10.90;99.90;;;;;;4954859;29;20034;-70
2021/06/02 02:20:53;;;;;;;2.50;1.40;;;10.80;99.90;;;;;;4954848;29;20031;-70
2021/06/02 02:23:36;;;;;;;2.83;1.30;;;10.90;99.60;;;;;;4954215;28;20106;-69
2021/06/02 02:26:21;;;;;;;4.10;1.70;;;10.90;99.70;;;;;;4954505;28;20501;-70
2021/06/02 02:29:15;;;;;;;4.00;1.38;;;10.90;99.90;;;;;;4954650;28;20031;-70
2021/06/02 02:31:50;;;;;;;3.50;1.52;;;10.90;99.90;;;;;;4954576;29;20379;-69
2021/06/02 02:34:42;;;;;;;3.47;1.50;;;10.90;99.90;;;;;;4954425;29;20027;-70
2021/06/02 02:37:16;;;;;;;3.45;1.67;;;10.80;99.90;;;;;;4953915;29;20054;-70
2021/06/02 02:40:03;;;;;;;2.35;1.33;;;10.70;99.90;;;;;;4954306;28;20019;-70
2021/06/02 02:42:53;;;;;;;4.82;1.50;;;10.70;99.90;;;;;;4954178;29;20031;-70
2021/06/02 02:45:22;;;;;;;2.13;1.30;;;10.80;99.90;;;;;;4953989;28;20510;-70
2021/06/02 02:48:08;;;;;;;2.15;1.30;;;11.00;99.90;;;;;;4954073;28;20028;-70
2021/06/02 02:51:11;;;;;;;3.28;1.50;;;11.10;99.90;;;;;;4954470;28;20093;-70
2021/06/02 02:53:45;;;;;;;2.10;1.50;;;11.30;99.90;;;;;;4954034;29;20103;-70
2021/06/02 02:56:17;;;;;;;3.92;1.42;;;11.40;99.70;;;;;;4953915;29;20106;-70
2021/06/02 02:59:02;;;;;;;4.15;1.60;;;11.50;99.00;;;;;;4954232;28;20023;-70
2021/06/02 03:01:38;;;;;;;3.33;1.40;;;11.60;98.50;;;;;;4953808;28;20036;-70
2021/06/02 03:04:13;;;;;;;5.13;1.80;;;11.70;97.70;;;;;;4954126;28;20039;-70
2021/06/02 03:06:44;;;;;;;2.95;1.40;;;11.80;97.30;;;;;;4953962;28;20435;-70
2021/06/02 03:09:16;;;;;;;3.10;1.67;;;11.80;97.20;;;;;;4953811;28;20390;-70
2021/06/02 03:12:11;;;;;;;2.42;1.58;;;11.90;96.90;;;;;;4953949;28;20027;-70
2021/06/02 03:14:49;;;;;;;2.97;1.67;;;12.00;96.80;;;;;;4950912;29;20032;-70
2021/06/02 03:17:48;;;;;;;6.05;1.90;;;12.40;95.30;;;;;;4953656;28;20066;-70
2021/06/02 03:20:44;;;;;;;3.97;1.50;;;13.00;92.00;;;;;;4955616;28;20019;-69
2021/06/02 03:23:14;;;;;;;3.38;1.60;;;13.50;88.50;;;;;;4929889;28;20035;-69
2021/06/02 03:25:51;;;;;;;2.57;1.50;;;13.90;83.50;;;;;;4958069;29;20035;-70
2021/06/02 03:28:41;;;;;;;3.58;1.52;;;14.20;81.20;;;;;;4957451;28;20118;-70
2021/06/02 03:31:26;;;;;;;3.65;1.63;;;14.40;78.40;;;;;;4957660;28;20031;-70
2021/06/02 03:34:12;;;;;;;3.90;1.60;;;14.50;77.30;;;;;;4957543;28;20479;-70
2021/06/02 03:36:51;;;;;;;6.00;1.63;;;14.70;76.70;;;;;;4957212;29;20082;-70
2021/06/02 03:39:36;;;;;;;3.88;1.70;;;15.00;74.60;;;;;;4957426;29;20027;-70
2021/06/02 03:42:45;;;;;;;5.72;1.40;;;15.30;73.60;;;;;;4957771;29;20051;-70
2021/06/02 03:45:29;;;;;;;1.80;1.27;;;15.70;71.30;;;;;;4897782;29;20036;-70
2021/06/02 03:48:16;;;;;;;2.30;1.40;;;16.00;70.10;;;;;;4955953;28;20039;-70
2021/06/02 03:50:56;;;;;;;2.00;1.45;;;16.30;69.30;;;;;;4957519;29;20031;-70
2021/06/02 03:54:08;;;;;;;2.75;1.50;;;16.60;66.60;;;;;;4957036;29;20034;-70
2021/06/02 03:57:01;;;;;;;2.28;1.30;;;17.00;65.50;;;;;;4957344;28;20048;-70
2021/06/02 03:59:59;;;;;;;5.00;1.50;;;17.30;64.50;;;;;;4957031;28;20542;-70
2021/06/02 04:02:47;;;;;;;4.53;1.23;;;17.60;63.60;;;;;;4924759;28;20167;-70
2021/06/02 04:05:58;;;;;;;2.67;1.42;;;17.90;63.00;;;;;;4956840;28;20492;-70
2021/06/02 04:08:42;;;;;;;1.90;1.17;;;18.20;62.70;;;;;;4942153;28;20035;-70
2021/06/02 04:11:29;;;;;;;1.92;1.13;;;18.50;61.10;;;;;;4956982;28;20497;-70
2021/06/02 04:14:00;;;;;;;2.80;1.20;;;18.90;59.90;;;;;;4956812;29;20070;-70
2021/06/02 04:16:36;;;;;;;4.40;1.20;;;19.30;59.10;;;;;;4956626;28;20487;-70
2021/06/02 04:19:05;;;;;;;3.63;1.25;;;19.60;57.50;;;;;;4956701;29;20494;-70
2021/06/02 04:21:33;;;;;;;2.80;1.30;;;19.80;56.70;;;;;;4956853;28;20086;-68
2021/06/02 04:24:03;;;;;;;4.47;1.00;;;19.90;56.50;;;;;;4956583;28;20407;-68
2021/06/02 04:26:31;;;;;;;2.67;1.15;;;20.10;55.80;;;;;;4956483;28;20321;-68
2021/06/02 04:29:03;;;;;;;1.88;1.20;;;20.30;55.00;;;;;;4956480;28;20443;-70
2021/06/02 04:31:29;;;;;;;6.40;1.10;;;20.60;55.50;;;;;;4955684;28;20028;-69
2021/06/02 04:34:01;;;;;;;8.63;1.30;;;20.70;54.30;;;;;;4956684;28;20031;-68
2021/06/02 04:36:29;;;;;;;9.70;1.48;;;20.80;54.10;;;;;;4956099;28;20391;-68
2021/06/02 04:38:57;;;;;;;9.05;1.23;;;21.10;53.40;;;;;;4956247;28;20035;-71
2021/06/02 04:41:27;;;;;;;7.43;1.27;;;21.30;52.90;;;;;;4956381;28;20027;-70
2021/06/02 04:43:58;;;;;;;5.55;1.70;;;21.60;53.00;;;;;;4956500;28;20434;-69
2021/06/02 04:46:24;;;;;;;8.55;1.30;;;22.00;52.90;;;;;;4956390;28;20031;-69
2021/06/02 04:48:51;;;;;;;7.22;2.00;;;22.20;52.00;;;;;;4956182;28;20038;-69
2021/06/02 04:52:02;;;;;;;6.18;1.70;;;22.40;51.00;;;;;;4956227;28;20023;-69
2021/06/02 04:55:04;;;;;;;4.95;1.60;;;22.30;50.60;;;;;;4956223;28;20452;-69
2021/06/02 04:57:45;;;;;;;5.78;1.67;;;22.40;50.20;;;;;;4956071;29;20035;-69
2021/06/02 05:00:30;;;;;;;7.53;1.55;;;22.60;50.20;;;;;;4954741;29;20031;-69
2021/06/02 05:03:12;;;;;;;40.55;2.65;;;22.60;49.70;;;;;;4956168;28;20031;-69
2021/06/02 05:06:22;;;;;;;4.90;1.65;;;22.90;49.20;;;;;;4955830;28;20118;-69
2021/06/02 05:09:00;;;;;;;;;;;23.10;48.80;;;;;;4928112;29;20054;-69
2021/06/02 05:12:07;;;;;;;3.15;1.20;;;23.30;47.80;;;;;;4955734;29;19945;-69
2021/06/02 05:14:52;;;;;;;7.18;1.20;;;23.40;47.30;;;;;;4955656;28;20031;-69
2021/06/02 05:17:53;;;;;;;14.18;1.88;;;23.70;47.10;;;;;;4955428;29;20027;-71
2021/06/02 05:20:21;;;;;;;38.13;2.15;;;23.80;46.50;;;;;;4955838;28;20042;-69
2021/06/02 05:23:24;;;;;;;6.77;1.23;;;24.00;46.40;;;;;;4955543;28;20558;-69
2021/06/02 05:26:26;;;;;;;7.95;1.50;;;24.20;45.60;;;;;;4955558;28;20561;-69
2021/06/02 05:29:14;;;;;;;10.20;1.60;;;24.50;46.50;;;;;;4925372;28;20035;-68
2021/06/02 05:31:49;;;;;;;3.40;1.30;;;24.60;45.30;;;;;;4926810;28;20035;-68
2021/06/02 05:34:48;;;;;;;4.45;1.33;;;24.70;45.20;;;;;;4955163;29;20076;-69
2021/06/02 05:37:48;;;;;;;5.40;1.10;;;24.80;45.10;;;;;;4954983;29;20051;-69
2021/06/02 05:40:32;;;;;;;4.63;1.30;;;25.00;45.10;;;;;;4955582;28;20386;-71
2021/06/02 05:43:32;;;;;;;5.05;1.15;;;25.30;44.00;;;;;;4954485;28;20387;-71
2021/06/02 05:46:09;;;;;;;5.65;1.33;;;25.30;43.50;;;;;;4955530;28;20035;-71
2021/06/02 05:48:49;;;;;;;9.75;1.20;;;25.50;44.80;;;;;;4954854;29;20039;-71
2021/06/02 05:51:21;;;;;;;;;;;25.50;44.60;;;;;;4955628;28;20042;-71
2021/06/02 05:53:52;;;;;;;10.05;1.42;;;25.70;44.90;;;;;;4955029;29;20298;-71
2021/06/02 05:56:48;;;;;;;23.92;2.33;;;25.80;44.30;;;;;;4953884;29;20023;-71
2021/06/02 05:59:40;;;;;;;48.80;3.83;;;25.90;43.90;;;;;;4955178;28;20038;-72
2021/06/02 06:02:45;;;;;;;1.85;1.00;;;25.90;43.60;;;;;;4955004;28;20046;-71
2021/06/02 06:05:25;;;;;;;2.15;1.08;;;26.00;42.70;;;;;;4924599;28;20089;-71
2021/06/02 06:08:12;;;;;;;8.82;1.63;;;26.20;43.20;;;;;;4954740;28;20031;-71
2021/06/02 06:11:15;;;;;;;3.63;1.20;;;26.30;43.30;;;;;;4954560;29;20030;-71
2021/06/02 06:13:44;;;;;;;2.95;1.20;;;26.40;43.10;;;;;;4954730;29;20027;-71
2021/06/02 06:16:18;;;;;;;11.52;1.70;;;26.30;43.30;;;;;;4954629;29;20028;-71
2021/06/02 06:19:19;;;;;;;8.63;1.70;;;26.30;42.90;;;;;;4954561;29;20055;-72
2021/06/02 06:22:05;;;;;;;14.75;1.95;;;26.30;42.00;;;;;;4954586;28;20046;-72
2021/06/02 06:24:47;;;;;;;6.57;1.80;;;26.40;43.70;;;;;;4954412;28;20051;-71
2021/06/02 06:27:18;;;;;;;2.92;1.30;;;26.50;43.40;;;;;;4954542;28;20023;-72
2021/06/02 06:30:13;;;;;;;9.13;1.60;;;26.50;43.50;;;;;;4954348;28;20241;-71
2021/06/02 06:32:41;;;;;;;6.50;1.92;;;26.50;43.40;;;;;;4951143;29;20043;-71
2021/06/02 06:35:10;;;;;;;4.25;1.40;;;26.50;43.60;;;;;;4954322;28;20027;-71
2021/06/02 06:37:53;;;;;;;2.47;1.05;;;26.50;43.00;;;;;;4953839;28;20048;-71
2021/06/02 06:40:27;;;;;;;3.80;1.65;;;26.50;43.40;;;;;;4954251;28;20027;-71
2021/06/02 06:42:56;;;;;;;2.63;1.17;;;26.60;43.30;;;;;;4954128;28;20031;-71
2021/06/02 06:45:27;;;;;;;4.88;1.08;;;26.60;42.90;;;;;;4954169;28;20396;-71
2021/06/02 06:47:54;;;;;;;3.67;1.40;;;26.50;42.00;;;;;;4953986;28;20118;-71
2021/06/02 06:50:20;;;;;;;3.13;1.33;;;26.40;41.90;;;;;;4952570;28;20035;-71
2021/06/02 06:52:52;;;;;;;3.25;1.48;;;26.50;43.10;;;;;;4954230;28;20423;-71
2021/06/02 06:55:18;;;;;;;2.85;1.42;;;26.50;43.50;;;;;;4953653;28;20023;-71
2021/06/02 06:57:45;;;;;;;2.25;1.30;;;26.40;42.10;;;;;;4953749;28;20027;-71
2021/06/02 07:00:12;;;;;;;4.28;1.45;;;26.40;42.80;;;;;;4952714;29;20506;-71
2021/06/02 07:02:42;;;;;;;8.93;1.67;;;26.50;43.50;;;;;;4953655;28;20042;-71
2021/06/02 07:05:10;;;;;;;4.45;1.30;;;26.40;43.20;;;;;;4953890;28;20540;-71
2021/06/02 07:07:39;;;;;;;2.67;1.45;;;26.50;42.80;;;;;;4953954;28;20031;-71
2021/06/02 07:10:07;;;;;;;3.50;1.92;;;26.40;42.80;;;;;;4954105;28;20463;-72
2021/06/02 07:12:35;;;;;;;3.30;1.45;;;26.30;43.70;;;;;;4953658;28;20532;-69
2021/06/02 07:15:03;;;;;;;7.13;1.55;;;26.10;43.40;;;;;;4953803;28;20085;-70
2021/06/02 07:17:30;;;;;;;4.15;1.55;;;26.00;43.40;;;;;;4953779;28;20027;-71
2021/06/02 07:20:05;;;;;;;46.88;4.88;;;25.80;43.30;;;;;;4951999;28;20031;-72
2021/06/02 07:22:33;;;;;;;23.50;3.15;;;25.70;43.40;;;;;;4953511;28;20028;-72
2021/06/02 07:24:59;;;;;;;7.57;1.80;;;25.50;45.10;;;;;;4953623;28;20132;-73
2021/06/02 07:27:26;;;;;;;17.10;2.42;;;25.30;45.20;;;;;;4953642;28;20522;-73
2021/06/02 07:29:52;;;;;;;9.00;1.75;;;25.30;46.00;;;;;;4943827;28;20122;-78
2021/06/02 07:32:18;;;;;;;4.80;2.17;;;25.40;45.90;;;;;;4934609;29;20104;-73
2021/06/02 07:34:45;;;;;;;5.35;1.40;;;25.40;45.30;;;;;;4933752;29;20027;-72
2021/06/02 07:37:11;;;;;;;3.78;1.42;;;25.30;45.30;;;;;;4934246;29;20127;-72
2021/06/02 07:39:36;;;;;;;2.97;1.67;;;25.20;45.70;;;;;;4934267;29;20040;-75
2021/06/02 07:42:06;;;;;;;9.52;1.80;;;25.10;45.60;;;;;;4935065;29;20034;-73
2021/06/02 07:44:32;;;;;;;;;;;24.90;46.30;;;;;;4934815;29;20090;-69
2021/06/02 07:46:58;;;;;;;6.78;1.95;;;24.90;46.00;;;;;;4934659;29;19910;-70
2021/06/02 07:49:23;;;;;;;8.70;1.90;;;25.00;46.10;;;;;;4934509;29;20482;-71
2021/06/02 07:51:51;;;;;;;4.65;1.63;;;25.20;47.00;;;;;;4934409;29;20024;-71
2021/06/02 07:54:19;;;;;;;4.82;1.80;;;25.30;46.20;;;;;;4939220;29;20019;-69
2021/06/02 07:56:45;;;;;;;3.70;1.83;;;25.30;45.90;;;;;;4944091;28;20179;-70
2021/06/02 07:59:11;;;;;;;5.88;1.50;;;25.20;45.70;;;;;;4933803;29;20543;-69
2021/06/02 08:01:36;;;;;;;5.60;1.60;;;25.20;45.90;;;;;;4933440;29;20123;-70
2021/06/02 08:04:02;;;;;;;12.68;2.22;;;25.20;45.60;;;;;;4933809;29;20038;-70
2021/06/02 08:06:28;;;;;;;7.00;2.08;;;25.10;45.80;;;;;;4934687;29;20059;-71
2021/06/02 08:08:54;;;;;;;7.15;2.03;;;25.20;45.60;;;;;;4937077;29;20130;-68
2021/06/02 08:11:20;;;;;;;5.88;1.85;;;25.20;47.00;;;;;;4937636;29;20480;-69
2021/06/02 08:13:45;;;;;;;7.18;1.60;;;25.20;47.20;;;;;;4937253;29;20110;-69
2021/06/02 08:16:11;;;;;;;3.30;1.60;;;25.30;46.10;;;;;;4937490;29;20027;-69
2021/06/02 08:18:37;;;;;;;2.38;1.70;;;25.20;45.40;;;;;;4937299;29;20403;-69
2021/06/02 08:21:04;;;;;;;6.35;1.77;;;25.00;45.90;;;;;;4937519;29;20023;-69
2021/06/02 08:23:30;;;;;;;6.85;1.55;;;25.00;46.40;;;;;;4937241;29;20562;-68
2021/06/02 08:25:56;;;;;;;6.68;2.20;;;25.00;45.90;;;;;;4937595;29;20023;-68
2021/06/02 08:28:22;;;;;;;3.33;1.40;;;24.80;46.00;;;;;;4937276;29;20046;-68
2021/06/02 08:30:48;;;;;;;4.90;1.80;;;24.70;45.90;;;;;;4937307;29;20032;-68
2021/06/02 08:33:14;;;;;;;3.35;1.50;;;24.80;46.50;;;;;;4937096;29;20038;-67
2021/06/02 08:35:40;;;;;;;5.78;1.90;;;24.90;46.30;;;;;;4936767;29;20023;-68
2021/06/02 08:38:06;;;;;;;6.90;1.73;;;24.90;45.80;;;;;;4937090;29;20027;-68
2021/06/02 08:40:31;;;;;;;4.20;1.60;;;24.90;47.10;;;;;;4936948;29;20111;-68
2021/06/02 08:42:58;;;;;;;2.80;1.70;;;25.00;46.40;;;;;;4932753;29;20034;-69
2021/06/02 08:45:23;;;;;;;3.83;1.40;;;25.10;46.10;;;;;;4925440;29;20040;-68
2021/06/02 08:47:49;;;;;;;4.78;1.70;;;25.00;45.30;;;;;;4927061;29;20476;-70
2021/06/02 08:50:19;;;;;;;13.05;2.38;;;24.90;45.40;;;;;;4933017;29;20446;-70
2021/06/02 08:52:45;;;;;;;26.33;2.50;;;24.80;45.90;;;;;;4928470;29;20044;-70
2021/06/02 08:55:14;;;;;;;24.15;2.88;;;24.90;47.10;;;;;;4930396;29;20356;-71
2021/06/02 08:57:41;;;;;;;;;;;25.00;47.10;;;;;;4928142;29;20383;-72
2021/06/02 09:00:13;;;;;;;4.45;1.70;;;25.00;47.10;;;;;;4926460;29;19914;-72
2021/06/02 09:02:41;;;;;;;5.10;1.65;;;24.90;45.80;;;;;;4925860;29;20020;-72
2021/06/02 09:05:08;;;;;;;7.25;1.83;;;25.00;45.30;;;;;;4936458;29;20496;-72
2021/06/02 09:07:38;;;;;;;7.07;2.15;;;24.80;45.20;;;;;;4937844;29;20031;-72
2021/06/02 09:10:09;;;;;;;17.13;3.00;;;24.90;46.30;;;;;;4936834;29;20506;-72
2021/06/02 09:12:41;;;;;;;3.28;1.95;;;25.00;46.30;;;;;;4936473;29;20075;-72
2021/06/02 09:15:12;;;;;;;4.25;1.65;;;25.20;46.00;;;;;;4936462;29;20030;-72
2021/06/02 09:18:06;;;;;;;2.70;2.20;;;25.20;46.00;;;;;;4936128;29;20102;-72
2021/06/02 09:20:38;;;;;;;9.27;2.28;;;25.10;44.10;;;;;;4936432;29;20027;-72
2021/06/02 09:23:40;;;;;;;19.45;2.05;;;25.00;45.00;;;;;;4936173;29;20061;-72
2021/06/02 09:26:12;;;;;;;2.85;1.80;;;24.90;45.00;;;;;;4952687;29;20454;-72
2021/06/02 09:28:48;;;;;;;3.55;1.83;;;24.90;45.30;;;;;;4951981;29;20115;-71
2021/06/02 09:31:24;;;;;;;8.70;1.95;;;24.70;45.10;;;;;;4936131;29;20024;-72
2021/06/02 09:33:50;;;;;;;2.88;1.75;;;24.80;45.50;;;;;;4935849;29;20488;-69
2021/06/02 09:36:16;;;;;;;7.57;1.95;;;24.80;45.60;;;;;;4935824;29;20051;-68
2021/06/02 09:38:52;;;;;;;7.38;1.73;;;24.70;45.30;;;;;;4935859;29;20051;-69
2021/06/02 09:41:18;;;;;;;12.02;1.73;;;24.60;46.40;;;;;;4936024;29;20036;-69
2021/06/02 09:43:43;;;;;;;11.52;1.80;;;24.40;46.20;;;;;;4935662;29;20047;-68
2021/06/02 09:46:13;;;;;;;8.93;1.45;;;24.20;46.20;;;;;;4935358;29;20608;-68
2021/06/02 09:48:40;;;;;;;2.47;1.40;;;24.20;46.80;;;;;;4934253;29;20027;-68
2021/06/02 09:51:26;;;;;;;5.35;1.63;;;24.20;46.20;;;;;;4935809;29;20032;-68
2021/06/02 09:53:56;;;;;;;5.82;1.40;;;24.10;47.00;;;;;;4935597;29;20409;-68
2021/06/02 09:56:51;;;;;;;10.45;1.63;;;24.10;46.80;;;;;;4935770;29;20384;-69
2021/06/02 09:59:18;;;;;;;5.45;1.58;;;24.10;46.40;;;;;;4935013;29;20055;-68
2021/06/02 10:02:02;;;;;;;2.47;1.50;;;24.00;46.90;;;;;;4935583;29;20024;-68
2021/06/02 10:04:28;;;;;;;7.32;1.48;;;23.90;46.50;;;;;;4935394;29;20483;-68
2021/06/02 10:06:54;;;;;;;61.67;3.80;;;23.90;46.80;;;;;;4935399;29;20035;-68
2021/06/02 10:09:38;;;;;;;8.40;1.40;;;23.90;46.90;;;;;;4951893;29;20034;-69
2021/06/02 10:12:08;;;;;;;16.35;1.58;;;23.80;47.00;;;;;;4954677;29;20468;-69
2021/06/02 10:14:36;;;;;;;72.22;4.72;;;23.80;47.40;;;;;;4954266;28;20024;-69
2021/06/02 10:17:02;;;;;;;10.30;1.53;;;23.80;46.80;;;;;;4954626;28;20019;-69
2021/06/02 10:19:35;;;;;;;13.95;1.52;;;23.80;46.60;;;;;;4954515;29;20118;-69
2021/06/02 10:22:03;;;;;;;6.57;1.33;;;23.70;47.00;;;;;;4954442;29;20162;-69
2021/06/02 10:24:30;;;;;;;11.95;1.10;;;23.70;46.80;;;;;;4954553;29;20035;-69
2021/06/02 10:26:57;;;;;;;10.07;1.88;;;23.50;46.50;;;;;;4954436;28;20109;-69
2021/06/02 10:29:24;;;;;;;3.70;1.25;;;23.40;46.90;;;;;;4954026;28;20038;-69
2021/06/02 10:31:49;;;;;;;6.20;1.45;;;23.30;46.70;;;;;;4954474;29;20086;-69
2021/06/02 10:34:15;;;;;;;4.55;1.00;;;23.20;46.80;;;;;;4954220;29;20035;-69
2021/06/02 10:36:43;;;;;;;24.08;1.90;;;23.10;47.00;;;;;;4953852;29;20051;-69
2021/06/02 10:39:09;;;;;;;14.95;1.30;;;23.10;47.80;;;;;;4954169;29;20027;-68
2021/06/02 10:41:49;;;;;;;7.97;1.52;;;23.20;47.40;;;;;;4954081;28;20039;-69
2021/06/02 10:44:20;;;;;;;9.95;1.40;;;23.20;47.40;;;;;;4954420;28;20133;-69
2021/06/02 10:46:48;;;;;;;8.00;1.48;;;23.30;47.40;;;;;;4952743;29;20090;-69
2021/06/02 10:49:14;;;;;;;9.93;1.73;;;23.30;47.40;;;;;;4954408;28;20034;-69
2021/06/02 10:51:43;;;;;;;22.83;1.65;;;23.40;47.60;;;;;;4954243;29;20400;-69
2021/06/02 10:54:11;;;;;;;3.10;1.20;;;23.50;47.30;;;;;;4953987;28;20096;-69
2021/06/02 10:56:39;;;;;;;2.85;1.08;;;23.50;47.10;;;;;;4953858;29;20023;-69
2021/06/02 10:59:25;;;;;;;3.58;1.30;;;23.50;46.60;;;;;;4954215;28;20394;-69
2021/06/02 11:02:10;;;;;;;5.13;1.20;;;23.30;46.70;;;;;;4954050;28;20027;-69
2021/06/02 11:04:39;;;;;;;7.53;1.40;;;23.30;47.10;;;;;;4953623;28;20102;-69
2021/06/02 11:07:33;;;;;;;7.97;1.40;;;23.30;47.10;;;;;;4954115;28;20451;-69
2021/06/02 11:10:02;;;;;;;10.07;1.25;;;23.30;46.70;;;;;;4946914;29;20042;-69
2021/06/02 11:12:49;;;;;;;4.78;1.20;;;23.40;47.10;;;;;;4953838;28;20035;-69
2021/06/02 11:15:43;;;;;;;14.95;1.42;;;23.30;47.10;;;;;;4953724;29;20066;-69
2021/06/02 11:18:09;;;;;;;165.27;10.38;;;23.40;46.50;;;;;;4954084;28;20043;-69
2021/06/02 11:20:49;;;;;;;8.85;1.60;;;23.40;46.60;;;;;;4953562;28;20035;-69
2021/06/02 11:23:20;;;;;;;7.40;1.50;;;23.40;46.70;;;;;;4953731;28;20038;-69
2021/06/02 11:25:48;;;;;;;8.10;1.33;;;23.40;46.20;;;;;;4953968;28;20044;-69
2021/06/02 11:28:40;;;;;;;10.77;1.70;;;23.40;46.60;;;;;;4953817;28;20326;-69
2021/06/02 11:31:22;;;;;;;7.25;1.55;;;23.50;46.60;;;;;;4948433;29;20123;-69
2021/06/02 11:33:49;;;;;;;6.13;1.48;;;23.40;46.20;;;;;;4953356;29;20479;-69
2021/06/02 11:36:14;;;;;;;8.10;1.85;;;23.30;45.90;;;;;;4953507;28;20059;-69
2021/06/02 11:38:42;;;;;;;11.63;1.73;;;23.40;46.00;;;;;;4953583;29;20434;-69
2021/06/02 11:41:09;;;;;;;4.25;1.83;;;23.40;45.70;;;;;;4955133;28;20070;-69
2021/06/02 11:43:35;;;;;;;9.82;1.70;;;23.30;45.70;;;;;;4957058;28;20518;-69
2021/06/02 11:46:02;;;;;;;11.75;2.03;;;23.30;46.00;;;;;;4957310;28;20027;-69
2021/06/02 11:48:30;;;;;;;4.57;1.20;;;23.40;46.40;;;;;;4957244;28;20043;-69
2021/06/02 11:50:59;;;;;;;5.38;1.35;;;23.40;46.60;;;;;;4957078;28;20023;-69
2021/06/02 11:53:43;;;;;;;10.93;1.30;;;23.40;46.80;;;;;;4957239;28;20085;-69
2021/06/02 11:56:09;;;;;;;7.28;1.30;;;23.40;46.60;;;;;;4957367;28;20414;-69
2021/06/02 11:58:35;;;;;;;11.23;1.20;;;23.40;46.80;;;;;;4957100;28;20082;-69
2021/06/02 12:01:03;;;;;;;5.70;1.67;;;23.40;46.80;;;;;;4957065;29;20507;-69
2021/06/02 12:03:29;;;;;;;6.13;1.40;;;23.50;47.00;;;;;;4956987;28;20027;-69
2021/06/02 12:05:55;;;;;;;3.33;1.15;;;23.50;47.30;;;;;;4955456;28;20038;-69
2021/06/02 12:08:21;;;;;;;5.75;1.40;;;23.50;47.10;;;;;;4956959;28;20027;-69
2021/06/02 12:10:49;;;;;;;13.75;1.40;;;23.50;47.10;;;;;;4956606;28;20491;-69
2021/06/02 12:13:34;;;;;;;7.47;1.60;;;23.60;47.10;;;;;;4956803;28;20106;-69
2021/06/02 12:16:07;;;;;;;4.45;1.15;;;23.60;47.00;;;;;;4956969;29;20126;-69
2021/06/02 12:18:43;;;;;;;3.58;1.65;;;23.70;47.10;;;;;;4957030;28;20028;-69
2021/06/02 12:21:27;;;;;;;5.63;1.63;;;23.70;46.70;;;;;;4956633;28;20026;-69
2021/06/02 12:24:01;;;;;;;6.43;1.70;;;23.70;46.90;;;;;;4956668;28;20114;-69
2021/06/02 12:26:34;;;;;;;10.77;2.05;;;23.70;46.60;;;;;;4956623;28;20387;-69
2021/06/02 12:29:05;;;;;;;7.32;1.95;;;23.70;46.50;;;;;;4956569;28;20020;-69
2021/06/02 12:31:57;;;;;;;3.20;1.10;;;23.80;46.50;;;;;;4956601;28;20023;-69
2021/06/02 12:34:32;;;;;;;11.95;1.75;;;23.70;46.70;;;;;;4956788;28;20486;-69
2021/06/02 12:37:01;;;;;;;6.03;1.50;;;23.70;46.50;;;;;;4956170;28;20054;-69
2021/06/02 12:39:29;;;;;;;6.38;1.30;;;23.80;46.50;;;;;;4956395;28;20031;-69
2021/06/02 12:41:57;;;;;;;12.52;1.80;;;23.80;46.40;;;;;;4956345;28;20027;-70
2021/06/02 12:44:23;;;;;;;1.58;0.98;;;23.80;46.90;;;;;;4956225;28;20027;-69
2021/06/02 12:47:00;;;;;;;43.75;3.03;;;23.80;46.20;;;;;;4956532;28;20034;-71
2021/06/02 12:49:26;;;;;;;5.88;1.05;;;23.80;45.90;;;;;;4956356;28;20142;-75
2021/06/02 12:51:56;;;;;;;3.78;1.10;;;23.80;46.00;;;;;;4955910;28;20510;-71
2021/06/02 12:54:24;;;;;;;7.78;1.70;;;23.80;46.00;;;;;;4956197;28;20031;-71
2021/06/02 12:56:50;;;;;;;12.18;1.85;;;23.70;45.90;;;;;;4956068;28;20503;-71
2021/06/02 12:59:16;;;;;;;7.78;1.52;;;23.70;45.70;;;;;;4956031;29;20042;-71
2021/06/02 13:01:43;;;;;;;11.02;1.40;;;23.70;45.80;;;;;;4955929;28;20535;-73
2021/06/02 13:04:14;;;;;;;27.17;2.35;;;23.70;46.60;;;;;;4956302;28;20070;-73
2021/06/02 13:06:51;;;;;;;5.75;1.45;;;23.80;46.60;;;;;;4956027;28;20019;-73
2021/06/02 13:09:20;;;;;;;10.88;1.55;;;23.90;46.00;;;;;;4956272;28;20435;-73
2021/06/02 13:11:46;;;;;;;11.65;1.90;;;23.90;45.40;;;;;;4954635;29;20023;-76
2021/06/02 13:14:12;;;;;;;5.22;1.30;;;23.90;45.80;;;;;;4950788;28;20116;-76
2021/06/02 13:16:54;;;;;;;6.70;1.23;;;23.90;45.00;;;;;;4928316;29;20059;-74
2021/06/02 13:19:41;;;;;;;1.92;1.25;;;23.90;44.90;;;;;;4935337;29;20562;-74
2021/06/02 13:22:20;;;;;;;9.20;1.65;;;23.80;45.10;;;;;;4936583;29;20036;-73
2021/06/02 13:24:46;;;;;;;11.10;2.17;;;23.80;45.40;;;;;;4936317;29;20067;-74
2021/06/02 13:27:18;;;;;;;11.57;1.88;;;23.90;45.90;;;;;;4936476;29;20310;-73
2021/06/02 13:30:14;;;;;;;14.80;1.73;;;23.90;45.10;;;;;;4936249;29;20031;-73